createdAt,value
2018-02-21T00:01:55.203Z,95.30
2018-02-21T00:04:22.813Z,95.30
2018-02-21T00:06:50.359Z,95.30
2018-02-21T00:09:17.944Z,95.30
2018-02-21T00:11:45.490Z,95.30
2018-02-21T00:14:13.033Z,95.70
2018-02-21T00:16:41.384Z,95.80
2018-02-21T00:19:09.019Z,95.80
2018-02-21T00:21:36.555Z,95.80
2018-02-21T00:24:04.995Z,96.00
2018-02-21T00:26:32.555Z,96.00
2018-02-21T00:29:00.095Z,95.90
2018-02-21T00:31:28.478Z,95.90
2018-02-21T00:33:56.018Z,95.90
2018-02-21T00:36:23.572Z,96.30
2018-02-21T00:38:51.249Z,96.10
2018-02-21T00:41:18.802Z,96.10
2018-02-21T00:43:46.344Z,96.20
2018-02-21T00:46:14.699Z,96.40
2018-02-21T00:48:42.336Z,96.40
2018-02-21T00:51:09.919Z,96.50
2018-02-21T00:53:37.516Z,96.80
2018-02-21T00:56:05.055Z,97.10
2018-02-21T00:58:32.608Z,97.20
2018-02-21T01:01:00.210Z,97.30
2018-02-21T01:03:27.756Z,97.30
2018-02-21T01:05:55.309Z,97.40
2018-02-21T01:08:23.665Z,97.10
2018-02-21T01:10:51.200Z,97.10
2018-02-21T01:13:19.579Z,97.30
2018-02-21T01:15:47.172Z,97.20
2018-02-21T01:18:14.729Z,97.60
2018-02-21T01:20:42.263Z,97.80
2018-02-21T01:23:11.135Z,98.10
2018-02-21T01:25:38.773Z,98.10
2018-02-21T01:28:06.319Z,98.20
2018-02-21T01:30:34.746Z,98.40
2018-02-21T01:33:02.286Z,98.40
2018-02-21T01:35:30.595Z,98.20
2018-02-21T01:37:58.180Z,98.10
2018-02-21T01:40:25.728Z,98.30
2018-02-21T01:42:53.274Z,98.40
2018-02-21T01:45:21.825Z,98.60
2018-02-21T01:47:49.472Z,98.50
2018-02-21T01:50:17.017Z,98.70
2018-02-21T01:52:45.433Z,98.90
2018-02-21T01:55:12.975Z,98.80
2018-02-21T01:57:41.275Z,98.80
2018-02-21T02:00:08.903Z,98.80
2018-02-21T02:02:36.439Z,99.10
2018-02-21T02:05:04.040Z,99.20
2018-02-21T02:07:31.628Z,99.10
2018-02-21T02:09:59.248Z,98.90
2018-02-21T02:12:26.791Z,98.70
2018-02-21T02:14:55.232Z,99.20
2018-02-21T02:17:22.956Z,99.20
2018-02-21T02:19:50.515Z,99.40
2018-02-21T02:22:18.252Z,99.50
2018-02-21T02:24:45.800Z,99.40
2018-02-21T02:27:13.351Z,99.60
2018-02-21T02:29:41.718Z,99.70
2018-02-21T02:32:09.358Z,99.70
2018-02-21T02:34:36.916Z,99.90
2018-02-21T02:37:04.610Z,99.70
2018-02-21T02:39:44.089Z,99.70
2018-02-21T02:42:11.682Z,99.70
2018-02-21T02:44:39.993Z,99.90
2018-02-21T02:47:07.540Z,99.90
2018-02-21T02:49:35.903Z,99.90
2018-02-21T02:52:03.465Z,99.90
2018-02-21T02:54:31.120Z,99.80
2018-02-21T02:56:58.866Z,99.90
2018-02-21T02:59:26.423Z,99.90
2018-02-21T03:01:53.983Z,99.90
2018-02-21T03:04:22.406Z,99.90
2018-02-21T03:06:50.006Z,99.90
2018-02-21T03:09:17.545Z,99.90
2018-02-21T03:11:45.134Z,99.90
2018-02-21T03:14:12.692Z,99.90
2018-02-21T03:16:40.242Z,99.90
2018-02-21T03:19:08.594Z,99.90
2018-02-21T03:21:36.138Z,99.90
2018-02-21T03:24:03.799Z,99.90
2018-02-21T03:26:31.383Z,99.90
2018-02-21T03:28:58.932Z,99.90
2018-02-21T03:31:26.509Z,99.90
2018-02-21T03:33:54.120Z,99.90
2018-02-21T03:36:21.667Z,99.90
2018-02-21T03:38:49.206Z,99.90
2018-02-21T03:41:17.650Z,99.90
2018-02-21T03:43:45.289Z,99.90
2018-02-21T03:46:12.920Z,99.90
2018-02-21T03:48:41.663Z,99.90
2018-02-21T03:51:09.291Z,99.90
2018-02-21T03:53:37.685Z,99.90
2018-02-21T03:56:06.121Z,99.90
2018-02-21T03:58:33.756Z,99.90
2018-02-21T04:01:01.391Z,99.90
2018-02-21T04:03:29.064Z,99.90
2018-02-21T04:05:56.807Z,99.90
2018-02-21T04:08:24.486Z,99.90
2018-02-21T04:10:52.171Z,99.90
2018-02-21T04:13:19.856Z,99.90
2018-02-21T04:15:47.484Z,99.90
2018-02-21T04:18:15.161Z,99.90
2018-02-21T04:20:42.793Z,99.90
2018-02-21T04:23:10.429Z,99.90
2018-02-21T04:25:38.297Z,99.90
2018-02-21T04:28:05.979Z,99.90
2018-02-21T04:30:33.615Z,99.90
2018-02-21T04:33:01.305Z,99.90
2018-02-21T04:35:28.944Z,99.90
2018-02-21T04:37:57.344Z,99.90
2018-02-21T04:40:25.911Z,99.90
2018-02-21T04:42:53.651Z,99.90
2018-02-21T04:45:21.287Z,99.90
2018-02-21T04:47:49.734Z,99.90
2018-02-21T04:50:17.388Z,99.90
2018-02-21T04:52:45.040Z,99.90
2018-02-21T04:58:36.414Z,99.90
2018-02-21T05:01:04.098Z,99.90
2018-02-21T05:03:31.766Z,99.90
2018-02-21T05:05:59.419Z,99.90
2018-02-21T05:08:27.876Z,99.90
2018-02-21T05:10:55.529Z,99.90
2018-02-21T05:13:23.165Z,99.90
2018-02-21T05:15:50.947Z,99.90
2018-02-21T05:18:18.651Z,99.90
2018-02-21T05:20:46.283Z,99.90
2018-02-21T05:23:13.947Z,99.90
2018-02-21T05:25:42.399Z,99.90
2018-02-21T05:28:10.068Z,99.90
2018-02-21T05:30:37.752Z,99.90
2018-02-21T05:33:05.400Z,99.90
2018-02-21T05:35:33.035Z,99.90
2018-02-21T05:38:01.495Z,99.90
2018-02-21T05:40:29.122Z,99.90
2018-02-21T05:42:56.757Z,99.90
2018-02-21T05:45:24.439Z,99.90
2018-02-21T05:47:52.974Z,99.90
2018-02-21T05:50:20.614Z,99.90
2018-02-21T05:52:49.060Z,99.90
2018-02-21T05:55:16.687Z,99.90
2018-02-21T05:57:44.316Z,99.90
2018-02-21T06:00:11.996Z,99.90
2018-02-21T06:02:39.734Z,99.90
2018-02-21T06:05:07.369Z,99.90
2018-02-21T06:07:35.809Z,99.90
2018-02-21T06:10:03.441Z,99.90
2018-02-21T06:12:31.143Z,99.90
2018-02-21T06:14:58.905Z,99.90
2018-02-21T06:17:26.578Z,99.90
2018-02-21T06:19:54.206Z,99.90
2018-02-21T06:22:21.876Z,99.90
2018-02-21T06:24:49.504Z,99.90
2018-02-21T06:27:17.136Z,99.90
2018-02-21T06:29:44.825Z,99.90
2018-02-21T06:32:13.254Z,99.90
2018-02-21T06:34:40.926Z,99.90
2018-02-21T06:37:08.612Z,99.90
2018-02-21T06:39:36.255Z,99.90
2018-02-21T06:42:03.890Z,99.90
2018-02-21T06:44:31.579Z,99.90
2018-02-21T06:46:59.975Z,99.90
2018-02-21T06:49:28.400Z,99.90
2018-02-21T06:51:56.113Z,99.90
2018-02-21T06:54:24.087Z,99.90
2018-02-21T06:56:51.724Z,99.90
2018-02-21T06:59:19.404Z,99.90
2018-02-21T07:01:47.075Z,99.90
2018-02-21T07:04:14.697Z,99.90
2018-02-21T07:06:42.384Z,99.90
2018-02-21T07:09:10.815Z,99.90
2018-02-21T07:11:38.499Z,99.90
2018-02-21T07:14:06.367Z,99.90
2018-02-21T07:16:34.008Z,99.90
2018-02-21T07:19:02.542Z,99.90
2018-02-21T07:21:30.310Z,99.90
2018-02-21T07:23:58.068Z,99.90
2018-02-21T07:26:25.767Z,99.90
2018-02-21T07:28:53.457Z,99.90
2018-02-21T07:31:21.111Z,99.90
2018-02-21T07:33:49.008Z,99.90
2018-02-21T07:36:16.864Z,99.90
2018-02-21T07:38:44.540Z,99.90
2018-02-21T07:41:12.169Z,99.90
2018-02-21T07:43:40.707Z,99.90
2018-02-21T07:46:08.331Z,99.90
2018-02-21T07:48:36.720Z,99.90
2018-02-21T07:51:04.434Z,99.90
2018-02-21T07:53:32.060Z,99.90
2018-02-21T07:56:00.513Z,99.90
2018-02-21T07:58:28.372Z,99.90
2018-02-21T08:00:56.068Z,99.90
2018-02-21T08:03:23.837Z,99.90
2018-02-21T08:05:51.509Z,99.60
2018-02-21T08:08:19.131Z,99.30
2018-02-21T08:10:46.771Z,98.60
2018-02-21T08:13:14.533Z,98.70
2018-02-21T08:15:42.439Z,97.80
2018-02-21T08:18:10.084Z,96.30
2018-02-21T08:20:37.743Z,95.70
2018-02-21T08:23:05.572Z,96.00
2018-02-21T08:25:33.964Z,96.20
2018-02-21T08:28:01.820Z,96.20
2018-02-21T08:30:29.449Z,95.90
2018-02-21T08:32:57.149Z,95.90
2018-02-21T08:35:24.912Z,95.40
2018-02-21T08:37:52.628Z,95.10
2018-02-21T08:40:20.391Z,94.30
2018-02-21T08:42:48.056Z,93.50
2018-02-21T08:45:15.695Z,94.00
2018-02-21T08:47:44.079Z,92.50
2018-02-21T08:50:12.523Z,91.70
2018-02-21T08:52:40.143Z,91.70
2018-02-21T08:55:08.535Z,89.20
2018-02-21T08:57:36.967Z,86.40
2018-02-21T09:00:04.593Z,86.30
2018-02-21T09:02:32.983Z,84.20
2018-02-21T09:05:01.423Z,80.90
2018-02-21T09:07:29.821Z,79.20
2018-02-21T09:09:57.495Z,79.40
2018-02-21T09:12:25.163Z,78.80
2018-02-21T09:14:52.787Z,77.10
2018-02-21T09:17:21.224Z,76.00
2018-02-21T09:19:48.891Z,76.00
2018-02-21T09:22:16.569Z,74.50
2018-02-21T09:24:44.377Z,71.90
2018-02-21T09:27:12.060Z,73.10
2018-02-21T09:29:39.689Z,73.40
2018-02-21T09:32:07.366Z,74.30
2018-02-21T09:34:35.039Z,74.20
2018-02-21T09:37:02.703Z,72.40
2018-02-21T09:39:30.382Z,70.70
2018-02-21T09:41:58.056Z,69.90
2018-02-21T09:44:25.686Z,70.20
2018-02-21T09:46:54.072Z,71.40
2018-02-21T09:49:21.743Z,71.40
2018-02-21T09:51:49.470Z,70.00
2018-02-21T09:54:17.096Z,71.70
2018-02-21T09:56:45.520Z,71.50
2018-02-21T09:59:13.227Z,71.10
2018-02-21T10:01:41.687Z,67.30
2018-02-21T10:04:09.356Z,67.30
2018-02-21T10:06:37.031Z,66.00
2018-02-21T10:09:04.659Z,64.80
2018-02-21T10:11:32.351Z,62.80
2018-02-21T10:14:00.734Z,60.90
2018-02-21T10:16:28.458Z,60.80
2018-02-21T10:18:56.137Z,60.30
2018-02-21T10:21:23.765Z,59.20
2018-02-21T10:23:52.152Z,57.90
2018-02-21T10:26:20.708Z,56.80
2018-02-21T10:28:49.184Z,55.50
2018-02-21T10:31:16.803Z,55.40
2018-02-21T10:33:45.352Z,58.20
2018-02-21T10:36:12.987Z,58.20
2018-02-21T10:38:41.371Z,57.00
2018-02-21T10:41:09.807Z,57.40
2018-02-21T10:43:37.427Z,57.90
2018-02-21T10:46:05.052Z,56.30
2018-02-21T10:48:32.732Z,54.00
2018-02-21T10:51:00.352Z,53.50
2018-02-21T10:53:28.747Z,56.20
2018-02-21T10:55:56.466Z,56.20
2018-02-21T10:58:24.136Z,63.40
2018-02-21T11:00:57.428Z,59.30
2018-02-21T11:03:25.047Z,57.50
2018-02-21T11:05:52.688Z,57.50
2018-02-21T11:08:20.451Z,57.60
2018-02-21T11:10:48.068Z,57.70
2018-02-21T11:13:15.710Z,58.10
2018-02-21T11:15:43.385Z,57.40
2018-02-21T11:18:11.011Z,55.10
2018-02-21T11:20:39.405Z,53.20
2018-02-21T11:23:07.840Z,53.40
2018-02-21T11:25:35.547Z,53.40
2018-02-21T11:28:03.939Z,54.20
2018-02-21T11:30:31.612Z,53.60
2018-02-21T11:33:00.120Z,54.20
2018-02-21T11:35:28.561Z,54.70
2018-02-21T11:37:56.271Z,54.30
2018-02-21T11:40:23.894Z,55.30
2018-02-21T11:42:51.584Z,55.20
2018-02-21T11:45:19.259Z,54.60
2018-02-21T11:47:47.014Z,54.60
2018-02-21T11:50:14.658Z,54.60
2018-02-21T11:52:43.117Z,55.50
2018-02-21T11:55:10.762Z,54.90
2018-02-21T11:57:38.382Z,55.40
2018-02-21T12:00:06.132Z,55.60
2018-02-21T12:02:33.757Z,55.40
2018-02-21T12:05:02.184Z,54.60
2018-02-21T12:07:30.089Z,54.50
2018-02-21T12:09:57.843Z,54.70
2018-02-21T12:12:25.512Z,55.00
2018-02-21T12:14:53.190Z,55.50
2018-02-21T12:17:20.858Z,56.70
2018-02-21T12:19:48.475Z,57.40
2018-02-21T12:22:16.140Z,57.00
2018-02-21T12:24:43.755Z,57.00
2018-02-21T12:27:11.387Z,58.60
2018-02-21T12:29:39.125Z,59.90
2018-02-21T12:32:06.760Z,60.70
2018-02-21T12:34:35.276Z,61.20
2018-02-21T12:37:02.983Z,61.20
2018-02-21T12:39:35.354Z,61.90
2018-02-21T12:42:03.285Z,62.10
2018-02-21T12:44:31.703Z,62.60
2018-02-21T12:46:59.339Z,63.30
2018-02-21T12:49:27.779Z,62.40
2018-02-21T12:51:55.563Z,62.60
2018-02-21T12:54:23.345Z,62.80
2018-02-21T12:56:51.219Z,63.30
2018-02-21T12:59:19.099Z,64.00
2018-02-21T13:01:47.576Z,65.70
2018-02-21T13:04:15.343Z,65.70
2018-02-21T13:06:43.004Z,66.50
2018-02-21T13:09:10.886Z,67.70
2018-02-21T13:11:38.781Z,68.10
2018-02-21T13:14:06.674Z,68.00
2018-02-21T13:16:34.337Z,68.30
2018-02-21T13:19:02.136Z,69.20
2018-02-21T13:21:29.903Z,69.40
2018-02-21T13:23:57.884Z,70.00
2018-02-21T13:26:25.863Z,71.00
2018-02-21T13:28:53.563Z,71.50
2018-02-21T13:31:21.271Z,72.00
2018-02-21T13:33:49.022Z,72.50
2018-02-21T13:36:16.766Z,73.20
2018-02-21T13:38:44.399Z,74.00
2018-02-21T13:41:13.380Z,74.80
2018-02-21T13:43:41.154Z,74.80
2018-02-21T13:46:08.798Z,74.60
2018-02-21T13:48:36.583Z,72.50
2018-02-21T13:51:04.803Z,71.90
2018-02-21T13:53:33.632Z,72.80
2018-02-21T13:56:01.440Z,72.70
2018-02-21T13:58:29.247Z,72.80
2018-02-21T14:00:57.190Z,72.50
2018-02-21T14:03:25.038Z,72.00
2018-02-21T14:05:53.110Z,73.20
2018-02-21T14:08:21.541Z,65.90
2018-02-21T14:10:49.317Z,65.90
2018-02-21T14:13:16.948Z,66.60
2018-02-21T14:15:46.042Z,68.10
2018-02-21T14:18:15.232Z,68.40
2018-02-21T14:20:42.917Z,68.40
2018-02-21T14:23:10.900Z,68.80
2018-02-21T14:25:38.593Z,68.70
2018-02-21T14:28:07.063Z,70.30
2018-02-21T14:30:34.824Z,70.20
2018-02-21T14:33:02.811Z,70.00
2018-02-21T14:35:30.460Z,70.10
2018-02-21T14:37:58.132Z,68.70
2018-02-21T14:40:27.036Z,66.60
2018-02-21T14:42:54.699Z,66.60
2018-02-21T14:45:22.382Z,66.70
2018-02-21T14:47:50.364Z,67.80
2018-02-21T14:50:18.075Z,68.30
2018-02-21T14:52:46.019Z,68.70
2018-02-21T14:55:13.920Z,69.80
2018-02-21T14:57:41.568Z,71.20
2018-02-21T15:00:09.232Z,72.20
2018-02-21T15:02:37.121Z,72.60
2018-02-21T15:05:04.802Z,72.90
2018-02-21T15:07:32.472Z,73.20
2018-02-21T15:10:00.152Z,74.10
2018-02-21T15:12:27.819Z,74.80
2018-02-21T15:14:55.716Z,75.90
2018-02-21T15:17:23.480Z,76.40
2018-02-21T15:19:51.121Z,76.30
2018-02-21T15:22:18.776Z,76.30
2018-02-21T15:24:47.413Z,75.80
2018-02-21T15:27:15.089Z,75.80
2018-02-21T15:29:42.764Z,75.20
2018-02-21T15:32:10.430Z,75.00
2018-02-21T15:34:38.812Z,74.70
2018-02-21T15:37:06.432Z,74.60
2018-02-21T15:39:34.096Z,74.70
2018-02-21T15:42:02.580Z,74.20
2018-02-21T15:44:30.230Z,74.30
2018-02-21T15:46:57.898Z,74.40
2018-02-21T15:49:25.556Z,74.00
2018-02-21T15:51:53.948Z,72.80
2018-02-21T15:54:22.471Z,72.60
2018-02-21T15:56:50.146Z,72.60
2018-02-21T15:59:17.818Z,71.90
2018-02-21T16:01:45.715Z,72.20
2018-02-21T16:04:13.332Z,72.40
2018-02-21T16:06:41.729Z,72.90
2018-02-21T16:09:10.171Z,72.30
2018-02-21T16:11:37.796Z,72.30
2018-02-21T16:14:06.218Z,73.70
2018-02-21T16:16:33.907Z,73.60
2018-02-21T16:19:01.524Z,75.20
2018-02-21T16:21:29.915Z,75.70
2018-02-21T16:23:58.432Z,76.30
2018-02-21T16:26:26.051Z,76.30
2018-02-21T16:28:53.683Z,77.00
2018-02-21T16:31:21.388Z,77.70
2018-02-21T16:33:49.003Z,78.20
2018-02-21T16:36:17.408Z,79.00
2018-02-21T16:38:45.096Z,78.90
2018-02-21T16:41:12.784Z,79.20
2018-02-21T16:43:40.410Z,80.30
2018-02-21T16:46:08.847Z,80.60
2018-02-21T16:48:36.531Z,80.60
2018-02-21T16:51:04.184Z,80.70
2018-02-21T16:53:31.872Z,81.20
2018-02-21T16:55:59.491Z,82.00
2018-02-21T16:58:27.922Z,83.90
2018-02-21T17:00:55.592Z,83.90
2018-02-21T17:03:23.292Z,83.70
2018-02-21T17:05:50.932Z,83.80
2018-02-21T17:08:18.595Z,84.10
2018-02-21T17:10:46.983Z,83.90
2018-02-21T17:13:15.457Z,83.20
2018-02-21T17:15:43.189Z,83.10
2018-02-21T17:18:10.808Z,83.90
2018-02-21T17:20:39.225Z,84.90
2018-02-21T17:23:06.955Z,84.90
2018-02-21T17:25:34.591Z,85.20
2018-02-21T17:28:02.275Z,85.10
2018-02-21T17:30:30.048Z,84.90
2018-02-21T17:32:57.707Z,85.60
2018-02-21T17:35:25.399Z,87.20
2018-02-21T17:37:53.125Z,86.50
2018-02-21T17:40:21.519Z,86.10
2018-02-21T17:42:50.161Z,86.90
2018-02-21T17:45:17.887Z,86.70
2018-02-21T17:47:45.644Z,86.80
2018-02-21T17:50:13.295Z,86.50
2018-02-21T17:52:40.986Z,87.80
2018-02-21T17:55:08.736Z,88.50
2018-02-21T17:57:36.356Z,88.60
2018-02-21T18:00:04.788Z,90.00
2018-02-21T18:02:32.407Z,90.00
2018-02-21T18:05:00.028Z,90.10
2018-02-21T18:07:27.738Z,90.00
2018-02-21T18:09:55.361Z,90.50
2018-02-21T18:12:23.750Z,90.90
2018-02-21T18:14:52.176Z,91.20
2018-02-21T18:17:19.848Z,91.10
2018-02-21T18:19:47.624Z,91.40
2018-02-21T18:22:15.357Z,91.50
2018-02-21T18:24:43.760Z,92.00
2018-02-21T18:27:12.282Z,92.20
2018-02-21T18:29:39.966Z,92.20
2018-02-21T18:32:07.588Z,99.20
2018-02-21T18:34:35.987Z,98.10
2018-02-21T18:37:04.427Z,95.50
2018-02-21T18:39:32.061Z,95.50
2018-02-21T18:41:59.695Z,94.20
2018-02-21T18:44:27.474Z,93.80
2018-02-21T18:46:55.111Z,94.40
2018-02-21T18:49:22.740Z,94.80
2018-02-21T18:51:51.273Z,95.20
2018-02-21T18:54:18.931Z,95.20
2018-02-21T18:56:46.569Z,95.70
2018-02-21T18:59:15.112Z,95.80
2018-02-21T19:01:42.892Z,96.40
2018-02-21T19:04:10.586Z,96.80
2018-02-21T19:06:38.339Z,97.00
2018-02-21T19:09:05.958Z,97.20
2018-02-21T19:11:33.606Z,97.70
2018-02-21T19:14:01.472Z,98.20
2018-02-21T19:16:29.091Z,98.30
2018-02-21T19:18:58.503Z,98.90
2018-02-21T19:21:26.955Z,99.40
2018-02-21T19:23:54.579Z,99.10
2018-02-21T19:26:22.980Z,99.80
2018-02-21T19:28:50.872Z,99.80
2018-02-21T19:31:18.592Z,99.70
2018-02-21T19:33:46.218Z,99.90
2018-02-21T19:36:13.912Z,99.90
2018-02-21T19:38:41.619Z,99.90
2018-02-21T19:41:09.243Z,99.90
2018-02-21T19:43:36.925Z,99.90
2018-02-21T19:46:04.570Z,99.90
2018-02-21T19:48:32.611Z,99.90
2018-02-21T19:51:00.283Z,99.90
2018-02-21T19:53:29.157Z,99.90
2018-02-21T19:55:56.783Z,99.90
2018-02-21T19:58:25.324Z,99.90
2018-02-21T20:00:54.557Z,99.90
2018-02-21T20:03:22.233Z,99.90
2018-02-21T20:05:49.911Z,99.90
2018-02-21T20:08:17.555Z,99.90
2018-02-21T20:10:45.184Z,99.90
2018-02-21T20:13:13.725Z,99.90
2018-02-21T20:15:41.392Z,99.90
2018-02-21T20:18:09.045Z,99.90
2018-02-21T20:20:36.737Z,99.90
2018-02-21T20:23:04.420Z,99.90
2018-02-21T20:25:32.196Z,99.90
2018-02-21T20:27:59.973Z,99.90
2018-02-21T20:30:27.641Z,99.90
2018-02-21T20:32:55.271Z,99.90
2018-02-21T20:35:23.717Z,99.90
2018-02-21T20:37:51.339Z,99.90
2018-02-21T20:40:19.743Z,99.90
2018-02-21T20:42:47.433Z,99.90
2018-02-21T20:45:15.120Z,99.90
2018-02-21T20:47:42.768Z,99.90
2018-02-21T20:50:10.568Z,99.90
2018-02-21T20:52:38.196Z,99.90
2018-02-21T20:55:06.584Z,99.90
2018-02-21T20:57:34.352Z,99.90
2018-02-21T21:00:01.989Z,99.90
2018-02-21T21:02:29.620Z,99.90
2018-02-21T21:04:57.326Z,99.90
2018-02-21T21:07:24.953Z,99.90
2018-02-21T21:09:52.592Z,99.90
2018-02-21T21:12:20.248Z,99.90
2018-02-21T21:14:47.881Z,99.90
2018-02-21T21:17:16.275Z,99.90
2018-02-21T21:19:44.907Z,99.90
2018-02-21T21:22:12.536Z,99.90
2018-02-21T21:24:41.381Z,99.90
2018-02-21T21:27:09.059Z,99.90
2018-02-21T21:29:36.691Z,99.90
2018-02-21T21:32:04.313Z,99.90
2018-02-21T21:34:31.983Z,99.90
2018-02-21T21:36:59.609Z,99.90
2018-02-21T21:39:28.004Z,99.90
2018-02-21T21:41:56.531Z,99.90
2018-02-21T21:44:24.175Z,99.90
2018-02-21T21:46:51.808Z,99.90
2018-02-21T21:49:19.476Z,99.90
2018-02-21T21:51:47.103Z,99.90
2018-02-21T21:54:15.508Z,99.90
2018-02-21T21:56:43.204Z,99.90
2018-02-21T21:59:10.823Z,99.90
2018-02-21T22:01:39.216Z,99.90
2018-02-21T22:04:07.652Z,99.90
2018-02-21T22:06:35.277Z,99.90
2018-02-21T22:09:02.903Z,99.90
2018-02-21T22:11:30.568Z,99.90
2018-02-21T22:13:58.196Z,99.90
2018-02-21T22:16:27.569Z,99.90
2018-02-21T22:18:55.248Z,99.90
2018-02-21T22:21:22.889Z,99.90
2018-02-21T22:23:50.519Z,99.90
2018-02-21T22:26:18.202Z,99.90
2018-02-21T22:28:46.615Z,99.90
2018-02-21T22:31:14.252Z,99.90
2018-02-21T22:33:42.284Z,99.90
2018-02-21T22:36:09.912Z,99.90
2018-02-21T22:38:37.637Z,99.90
2018-02-21T22:41:05.299Z,99.90
2018-02-21T22:43:32.932Z,99.90
2018-02-21T22:46:01.393Z,99.90
2018-02-21T22:48:29.843Z,99.90
2018-02-21T22:50:57.476Z,99.90
2018-02-21T22:53:25.096Z,99.90
2018-02-21T22:55:52.872Z,99.90
2018-02-21T22:58:20.561Z,99.90
2018-02-21T23:00:48.234Z,99.90
2018-02-21T23:03:15.907Z,99.90
2018-02-21T23:05:43.532Z,99.90
2018-02-21T23:08:11.160Z,99.90
2018-02-21T23:10:38.828Z,99.90
2018-02-21T23:13:06.452Z,99.90
2018-02-21T23:15:34.850Z,99.90
2018-02-21T23:18:03.288Z,99.90
2018-02-21T23:20:30.915Z,99.90
2018-02-21T23:22:59.316Z,99.90
2018-02-21T23:25:27.768Z,99.90
2018-02-21T23:27:55.394Z,99.90
2018-02-21T23:30:23.084Z,99.90
2018-02-21T23:32:50.749Z,99.90
2018-02-21T23:35:18.388Z,99.90
2018-02-21T23:37:46.784Z,99.90
2018-02-21T23:40:15.270Z,99.90
2018-02-21T23:42:43.791Z,99.90
2018-02-21T23:45:11.616Z,99.90
2018-02-21T23:47:39.362Z,99.90
2018-02-21T23:50:07.573Z,99.90
2018-02-21T23:52:35.202Z,99.90
2018-02-21T23:55:02.972Z,99.90
2018-02-21T23:57:30.606Z,99.90
2018-02-21T23:59:58.240Z,99.90
